OAL929 FOOL-FTTJ
Flight info
| Callsign | OAL929 |
|---|---|
| Flight time | 1h 53m |
| Altitude | 37000 |
| Route | ARASI UH455 TJR UG727 PITRU UG857 FL UG660 KELAK |
| Aircraft | B738/M-V/N |
Departure
| Time | 2026-04-28 15:42 |
|---|---|
| Airport | Libreville Leon M'ba International Airport (FOOL) |
Arrival
| Time | 2026-04-28 17:36 |
|---|---|
| Airport | N'Djamena International Airport (FTTJ) |
| Time | Latitude | Longitude | Altitude | Speed | Heading |
|---|---|---|---|---|---|
| 2026-04-28 15:35 | 0.47029 | 9.40667 | 37 ft | 0 kts | 154° |
| 2026-04-28 15:42 | 0.46999 | 9.40681 | 37 ft | 29 kts | 154° |
| 2026-04-28 15:42 | 0.46540 | 9.40903 | 37 ft | 116 kts | 154° |
| 2026-04-28 15:42 | 0.45593 | 9.41364 | 140 ft | 177 kts | 154° |
| 2026-04-28 15:42 | 0.44538 | 9.41880 | 1278 ft | 167 kts | 155° |
| 2026-04-28 15:43 | 0.43427 | 9.42286 | 2052 ft | 187 kts | 177° |
| 2026-04-28 15:43 | 0.42120 | 9.41855 | 2368 ft | 217 kts | 221° |
| 2026-04-28 15:43 | 0.41375 | 9.40490 | 2604 ft | 240 kts | 262° |
| 2026-04-28 15:43 | 0.41716 | 9.38812 | 2950 ft | 260 kts | 302° |
| 2026-04-28 15:44 | 0.43097 | 9.37649 | 3698 ft | 266 kts | 339° |
| 2026-04-28 15:44 | 0.44927 | 9.37485 | 4590 ft | 268 kts | 10° |
| 2026-04-28 15:44 | 0.46648 | 9.38205 | 5404 ft | 272 kts | 35° |
| 2026-04-28 15:44 | 0.48182 | 9.39334 | 6228 ft | 276 kts | 37° |
| 2026-04-28 15:45 | 0.49726 | 9.40491 | 7018 ft | 280 kts | 37° |
| 2026-04-28 15:45 | 0.50763 | 9.41269 | 7548 ft | 282 kts | 37° |
| 2026-04-28 15:45 | 0.52340 | 9.42448 | 8341 ft | 285 kts | 37° |
| 2026-04-28 15:45 | 0.53941 | 9.43640 | 9116 ft | 288 kts | 37° |
| 2026-04-28 15:46 | 0.55563 | 9.44842 | 9867 ft | 292 kts | 37° |
| 2026-04-28 15:46 | 0.57215 | 9.46063 | 10456 ft | 303 kts | 37° |
| 2026-04-28 15:46 | 0.59580 | 9.47810 | 10689 ft | 335 kts | 36° |
| 2026-04-28 15:46 | 0.60876 | 9.48764 | 10808 ft | 350 kts | 36° |
| 2026-04-28 15:47 | 0.62931 | 9.50189 | 11068 ft | 367 kts | 34° |
| 2026-04-28 15:47 | 0.65087 | 9.51614 | 11624 ft | 374 kts | 33° |
| 2026-04-28 15:47 | 0.67245 | 9.53022 | 12307 ft | 377 kts | 33° |
| 2026-04-28 15:47 | 0.69449 | 9.54461 | 12992 ft | 380 kts | 33° |
| 2026-04-28 15:48 | 0.71666 | 9.55911 | 13626 ft | 383 kts | 33° |
| 2026-04-28 15:48 | 0.73905 | 9.57383 | 14243 ft | 387 kts | 33° |
| 2026-04-28 15:48 | 0.76164 | 9.58872 | 14848 ft | 391 kts | 33° |
| 2026-04-28 15:48 | 0.78440 | 9.60376 | 15460 ft | 394 kts | 33° |
| 2026-04-28 15:49 | 0.80738 | 9.61896 | 16059 ft | 397 kts | 33° |
| 2026-04-28 15:49 | 0.83052 | 9.63428 | 16628 ft | 401 kts | 33° |
| 2026-04-28 15:49 | 0.85385 | 9.64974 | 17177 ft | 404 kts | 33° |
| 2026-04-28 15:49 | 0.87738 | 9.66533 | 17714 ft | 407 kts | 33° |
| 2026-04-28 15:50 | 0.90108 | 9.68103 | 18241 ft | 411 kts | 33° |
| 2026-04-28 15:50 | 0.92498 | 9.69686 | 18756 ft | 414 kts | 33° |
| 2026-04-28 15:50 | 0.94911 | 9.71285 | 19268 ft | 417 kts | 33° |
| 2026-04-28 15:50 | 0.97340 | 9.72895 | 19751 ft | 420 kts | 33° |
| 2026-04-28 15:51 | 0.99784 | 9.74514 | 20247 ft | 423 kts | 33° |
| 2026-04-28 15:51 | 1.02214 | 9.76124 | 20702 ft | 426 kts | 33° |
| 2026-04-28 15:51 | 1.04690 | 9.77765 | 21143 ft | 429 kts | 33° |
| 2026-04-28 15:51 | 1.07188 | 9.79420 | 21583 ft | 432 kts | 33° |
| 2026-04-28 15:52 | 1.09700 | 9.81085 | 22000 ft | 435 kts | 33° |
| 2026-04-28 15:52 | 1.12229 | 9.82761 | 22413 ft | 437 kts | 33° |
| 2026-04-28 15:52 | 1.14770 | 9.84444 | 22804 ft | 440 kts | 33° |
| 2026-04-28 15:52 | 1.17330 | 9.86142 | 23192 ft | 442 kts | 33° |
| 2026-04-28 15:53 | 1.19899 | 9.87844 | 23566 ft | 445 kts | 33° |
| 2026-04-28 15:53 | 1.22485 | 9.89558 | 23931 ft | 447 kts | 33° |
| 2026-04-28 15:53 | 1.25088 | 9.91284 | 24287 ft | 450 kts | 33° |
| 2026-04-28 15:53 | 1.27703 | 9.93017 | 24634 ft | 452 kts | 33° |
| 2026-04-28 15:54 | 1.30331 | 9.94759 | 24970 ft | 455 kts | 33° |
| 2026-04-28 15:54 | 1.32969 | 9.96507 | 25299 ft | 457 kts | 33° |
| 2026-04-28 15:54 | 1.35593 | 9.98246 | 25609 ft | 459 kts | 33° |
| 2026-04-28 15:54 | 1.38261 | 10.00015 | 25918 ft | 461 kts | 33° |
| 2026-04-28 15:55 | 1.40942 | 10.01793 | 26214 ft | 463 kts | 33° |
| 2026-04-28 15:55 | 1.43637 | 10.03579 | 26501 ft | 465 kts | 33° |
| 2026-04-28 15:55 | 1.46338 | 10.05370 | 26782 ft | 467 kts | 33° |
| 2026-04-28 15:55 | 1.49055 | 10.07171 | 27054 ft | 469 kts | 33° |
| 2026-04-28 15:56 | 1.51782 | 10.08980 | 27316 ft | 471 kts | 33° |
| 2026-04-28 15:56 | 1.54518 | 10.10793 | 27571 ft | 473 kts | 33° |
| 2026-04-28 15:56 | 1.57266 | 10.12616 | 27821 ft | 475 kts | 33° |
| 2026-04-28 15:56 | 1.60021 | 10.14443 | 28060 ft | 477 kts | 33° |
| 2026-04-28 15:57 | 1.62787 | 10.16277 | 28298 ft | 478 kts | 33° |
| 2026-04-28 15:57 | 1.65565 | 10.18119 | 28571 ft | 479 kts | 33° |
| 2026-04-28 15:57 | 1.68335 | 10.19956 | 28915 ft | 477 kts | 33° |
| 2026-04-28 15:57 | 1.71096 | 10.21788 | 29285 ft | 476 kts | 33° |
| 2026-04-28 15:58 | 1.73818 | 10.23594 | 29622 ft | 475 kts | 33° |
| 2026-04-28 15:58 | 1.76571 | 10.25420 | 29927 ft | 475 kts | 33° |
| 2026-04-28 15:58 | 1.79319 | 10.27243 | 30232 ft | 474 kts | 33° |
| 2026-04-28 15:58 | 1.82067 | 10.29065 | 30569 ft | 473 kts | 33° |
| 2026-04-28 15:59 | 1.84809 | 10.30882 | 30895 ft | 472 kts | 33° |
| 2026-04-28 15:59 | 1.87545 | 10.32696 | 31192 ft | 472 kts | 33° |
| 2026-04-28 15:59 | 1.90283 | 10.34511 | 31478 ft | 472 kts | 33° |
| 2026-04-28 15:59 | 1.93014 | 10.36322 | 31772 ft | 471 kts | 33° |
| 2026-04-28 16:00 | 1.95746 | 10.38133 | 32064 ft | 470 kts | 33° |
| 2026-04-28 16:00 | 1.98477 | 10.39944 | 32337 ft | 470 kts | 33° |
| 2026-04-28 16:00 | 2.01195 | 10.41748 | 32604 ft | 469 kts | 33° |
| 2026-04-28 16:00 | 2.03918 | 10.43554 | 32876 ft | 469 kts | 33° |
| 2026-04-28 16:01 | 2.06631 | 10.45354 | 33141 ft | 468 kts | 33° |
| 2026-04-28 16:01 | 2.09344 | 10.47154 | 33393 ft | 468 kts | 33° |
| 2026-04-28 16:01 | 2.12054 | 10.48952 | 33640 ft | 467 kts | 33° |
| 2026-04-28 16:01 | 2.14765 | 10.50750 | 33894 ft | 467 kts | 33° |
| 2026-04-28 16:02 | 2.17469 | 10.52545 | 34131 ft | 466 kts | 33° |
| 2026-04-28 16:02 | 2.20135 | 10.54314 | 34358 ft | 466 kts | 33° |
| 2026-04-28 16:02 | 2.22829 | 10.56101 | 34590 ft | 465 kts | 33° |
| 2026-04-28 16:02 | 2.25529 | 10.57893 | 34809 ft | 465 kts | 33° |
| 2026-04-28 16:03 | 2.28220 | 10.59679 | 35037 ft | 464 kts | 33° |
| 2026-04-28 16:03 | 2.30910 | 10.61464 | 35247 ft | 464 kts | 33° |
| 2026-04-28 16:03 | 2.33599 | 10.63249 | 35456 ft | 464 kts | 33° |
| 2026-04-28 16:03 | 2.36285 | 10.65032 | 35662 ft | 463 kts | 33° |
| 2026-04-28 16:04 | 2.38965 | 10.66811 | 35846 ft | 463 kts | 33° |
| 2026-04-28 16:04 | 2.41647 | 10.68592 | 36050 ft | 462 kts | 33° |
| 2026-04-28 16:04 | 2.44326 | 10.70371 | 36238 ft | 462 kts | 33° |
| 2026-04-28 16:04 | 2.47004 | 10.72149 | 36401 ft | 462 kts | 33° |
| 2026-04-28 16:05 | 2.49682 | 10.73926 | 36552 ft | 462 kts | 33° |
| 2026-04-28 16:05 | 2.52367 | 10.75708 | 36719 ft | 462 kts | 33° |
| 2026-04-28 16:05 | 2.55045 | 10.77486 | 36885 ft | 462 kts | 33° |
| 2026-04-28 16:05 | 2.57723 | 10.79263 | 36994 ft | 463 kts | 33° |
| 2026-04-28 16:06 | 2.63110 | 10.82841 | 36999 ft | 465 kts | 33° |
| 2026-04-28 16:06 | 2.68446 | 10.86386 | 36998 ft | 462 kts | 33° |
| 2026-04-28 16:07 | 2.73790 | 10.89936 | 37000 ft | 460 kts | 33° |
| 2026-04-28 16:08 | 2.81773 | 10.95240 | 37000 ft | 458 kts | 33° |
| 2026-04-28 16:08 | 2.87080 | 10.98767 | 37001 ft | 458 kts | 33° |
| 2026-04-28 16:09 | 2.95054 | 11.04066 | 37003 ft | 458 kts | 33° |
| 2026-04-28 16:10 | 3.02999 | 11.09347 | 37003 ft | 460 kts | 33° |
| 2026-04-28 16:10 | 3.10997 | 11.14665 | 37003 ft | 462 kts | 33° |
| 2026-04-28 16:11 | 3.21714 | 11.21792 | 37001 ft | 464 kts | 33° |
| 2026-04-28 16:12 | 3.29794 | 11.27167 | 37003 ft | 465 kts | 33° |
| 2026-04-28 16:13 | 3.37840 | 11.32520 | 37002 ft | 465 kts | 33° |
| 2026-04-28 16:14 | 3.48611 | 11.39687 | 37001 ft | 465 kts | 33° |
| 2026-04-28 16:15 | 3.59372 | 11.46852 | 37001 ft | 463 kts | 33° |
| 2026-04-28 16:15 | 3.64742 | 11.50428 | 37001 ft | 463 kts | 33° |
| 2026-04-28 16:16 | 3.72829 | 11.55623 | 36991 ft | 462 kts | 26° |
| 2026-04-28 16:17 | 3.81906 | 11.58662 | 36998 ft | 460 kts | 17° |
| 2026-04-28 16:17 | 3.88029 | 11.60535 | 37002 ft | 460 kts | 17° |
| 2026-04-28 16:18 | 3.94142 | 11.62446 | 37002 ft | 460 kts | 17° |
| 2026-04-28 16:18 | 4.00254 | 11.64375 | 37002 ft | 461 kts | 17° |
| 2026-04-28 16:19 | 4.06373 | 11.66309 | 37002 ft | 461 kts | 17° |
| 2026-04-28 16:19 | 4.12492 | 11.68242 | 37002 ft | 461 kts | 17° |
| 2026-04-28 16:20 | 4.18620 | 11.70178 | 37003 ft | 462 kts | 17° |
| 2026-04-28 16:20 | 4.24732 | 11.72109 | 37001 ft | 462 kts | 17° |
| 2026-04-28 16:21 | 4.30774 | 11.74017 | 37002 ft | 463 kts | 17° |
| 2026-04-28 16:21 | 4.36915 | 11.75958 | 37002 ft | 463 kts | 17° |
| 2026-04-28 16:22 | 4.43066 | 11.77902 | 37001 ft | 463 kts | 17° |
| 2026-04-28 16:22 | 4.49216 | 11.79845 | 37002 ft | 463 kts | 17° |
| 2026-04-28 16:23 | 4.55319 | 11.81774 | 37001 ft | 463 kts | 17° |
| 2026-04-28 16:23 | 4.61427 | 11.83706 | 37002 ft | 463 kts | 17° |
| 2026-04-28 16:24 | 4.67578 | 11.85651 | 37000 ft | 463 kts | 17° |
| 2026-04-28 16:24 | 4.73725 | 11.87595 | 37001 ft | 463 kts | 17° |
| 2026-04-28 16:25 | 4.79866 | 11.89538 | 37002 ft | 463 kts | 17° |
| 2026-04-28 16:25 | 4.86004 | 11.91480 | 37001 ft | 462 kts | 17° |
| 2026-04-28 16:26 | 4.92140 | 11.93422 | 37000 ft | 462 kts | 17° |
| 2026-04-28 16:27 | 4.97807 | 11.95216 | 37002 ft | 462 kts | 17° |
| 2026-04-28 16:28 | 5.06999 | 11.98126 | 37001 ft | 462 kts | 17° |
| 2026-04-28 16:28 | 5.13128 | 12.00068 | 37001 ft | 462 kts | 17° |
| 2026-04-28 16:29 | 5.22319 | 12.02979 | 37002 ft | 462 kts | 17° |
| 2026-04-28 16:30 | 5.31502 | 12.05889 | 37001 ft | 462 kts | 17° |
| 2026-04-28 16:30 | 5.37603 | 12.07824 | 37001 ft | 462 kts | 17° |
| 2026-04-28 16:31 | 5.43718 | 12.09763 | 37002 ft | 462 kts | 17° |
| 2026-04-28 16:31 | 5.49836 | 12.11702 | 37000 ft | 462 kts | 17° |
| 2026-04-28 16:32 | 5.55985 | 12.13654 | 37001 ft | 462 kts | 17° |
| 2026-04-28 16:32 | 5.65198 | 12.16579 | 37003 ft | 462 kts | 17° |
| 2026-04-28 16:33 | 5.70300 | 12.18199 | 37000 ft | 463 kts | 17° |
| 2026-04-28 16:33 | 5.77442 | 12.20468 | 37002 ft | 463 kts | 17° |
| 2026-04-28 16:34 | 5.83567 | 12.22414 | 37001 ft | 463 kts | 17° |
| 2026-04-28 16:34 | 5.89695 | 12.24362 | 37001 ft | 463 kts | 17° |
| 2026-04-28 16:35 | 5.95817 | 12.26308 | 37001 ft | 463 kts | 17° |
| 2026-04-28 16:35 | 6.01992 | 12.28271 | 37002 ft | 463 kts | 17° |
| 2026-04-28 16:36 | 6.08113 | 12.30218 | 37001 ft | 463 kts | 17° |
| 2026-04-28 16:36 | 6.14258 | 12.32173 | 37001 ft | 463 kts | 17° |
| 2026-04-28 16:37 | 6.20347 | 12.34110 | 37001 ft | 463 kts | 17° |
| 2026-04-28 16:38 | 6.29564 | 12.37044 | 37002 ft | 462 kts | 17° |
| 2026-04-28 16:38 | 6.35684 | 12.38992 | 37001 ft | 462 kts | 17° |
| 2026-04-28 16:39 | 6.41818 | 12.40946 | 37001 ft | 462 kts | 17° |
| 2026-04-28 16:39 | 6.47938 | 12.42895 | 37002 ft | 462 kts | 17° |
| 2026-04-28 16:40 | 6.54074 | 12.44850 | 37001 ft | 462 kts | 17° |
| 2026-04-28 16:40 | 6.60194 | 12.46801 | 37002 ft | 462 kts | 17° |
| 2026-04-28 16:41 | 6.66325 | 12.48756 | 37002 ft | 462 kts | 17° |
| 2026-04-28 16:41 | 6.72448 | 12.50708 | 37001 ft | 462 kts | 17° |
| 2026-04-28 16:42 | 6.78566 | 12.52661 | 37001 ft | 462 kts | 17° |
| 2026-04-28 16:42 | 6.84688 | 12.54614 | 37002 ft | 462 kts | 17° |
| 2026-04-28 16:43 | 6.90809 | 12.56564 | 37001 ft | 462 kts | 17° |
| 2026-04-28 16:43 | 6.96967 | 12.58524 | 37002 ft | 462 kts | 17° |
| 2026-04-28 16:44 | 7.03089 | 12.60473 | 37001 ft | 463 kts | 17° |
| 2026-04-28 16:44 | 7.09214 | 12.62424 | 37002 ft | 463 kts | 17° |
| 2026-04-28 16:45 | 7.15350 | 12.64380 | 37001 ft | 463 kts | 17° |
| 2026-04-28 16:45 | 7.21460 | 12.66330 | 37001 ft | 463 kts | 17° |
| 2026-04-28 16:46 | 7.27590 | 12.68300 | 37001 ft | 463 kts | 18° |
| 2026-04-28 16:46 | 7.33711 | 12.70272 | 37002 ft | 462 kts | 18° |
| 2026-04-28 16:47 | 7.39841 | 12.72246 | 37002 ft | 462 kts | 18° |
| 2026-04-28 16:47 | 7.45993 | 12.74227 | 37001 ft | 462 kts | 18° |
| 2026-04-28 16:48 | 7.52110 | 12.76197 | 37002 ft | 462 kts | 18° |
| 2026-04-28 16:48 | 7.58230 | 12.78168 | 36999 ft | 463 kts | 18° |
| 2026-04-28 16:49 | 7.64347 | 12.80139 | 37003 ft | 462 kts | 18° |
| 2026-04-28 16:49 | 7.70479 | 12.82116 | 36998 ft | 463 kts | 18° |
| 2026-04-28 16:50 | 7.76596 | 12.84088 | 37003 ft | 462 kts | 18° |
| 2026-04-28 16:50 | 7.82732 | 12.86067 | 37001 ft | 463 kts | 18° |
| 2026-04-28 16:51 | 7.88832 | 12.88035 | 37000 ft | 463 kts | 18° |
| 2026-04-28 16:51 | 7.94980 | 12.90020 | 37002 ft | 463 kts | 18° |
| 2026-04-28 16:52 | 8.01068 | 12.91985 | 37000 ft | 463 kts | 17° |
| 2026-04-28 16:52 | 8.07199 | 12.93947 | 37002 ft | 462 kts | 17° |
| 2026-04-28 16:53 | 8.13327 | 12.95904 | 37000 ft | 462 kts | 17° |
| 2026-04-28 16:53 | 8.19483 | 12.97871 | 37002 ft | 462 kts | 17° |
| 2026-04-28 16:54 | 8.25605 | 12.99831 | 37001 ft | 462 kts | 17° |
| 2026-04-28 16:54 | 8.31710 | 13.01785 | 37001 ft | 462 kts | 17° |
| 2026-04-28 16:55 | 8.37875 | 13.03760 | 37001 ft | 462 kts | 17° |
| 2026-04-28 16:55 | 8.43978 | 13.05716 | 37001 ft | 462 kts | 17° |
| 2026-04-28 16:56 | 8.50104 | 13.07679 | 37002 ft | 463 kts | 17° |
| 2026-04-28 16:56 | 8.56230 | 13.09644 | 37001 ft | 463 kts | 17° |
| 2026-04-28 16:57 | 8.62383 | 13.11617 | 37002 ft | 463 kts | 17° |
| 2026-04-28 16:57 | 8.68493 | 13.13578 | 36997 ft | 463 kts | 17° |
| 2026-04-28 16:58 | 8.74631 | 13.15548 | 37003 ft | 463 kts | 17° |
| 2026-04-28 16:58 | 8.80754 | 13.17514 | 37001 ft | 463 kts | 17° |
| 2026-04-28 16:59 | 8.85857 | 13.19153 | 37001 ft | 463 kts | 17° |
| 2026-04-28 16:59 | 8.91981 | 13.21120 | 37001 ft | 463 kts | 17° |
| 2026-04-28 17:00 | 8.98132 | 13.23097 | 37001 ft | 463 kts | 17° |
| 2026-04-28 17:00 | 9.04256 | 13.25066 | 37001 ft | 463 kts | 17° |
| 2026-04-28 17:01 | 9.10393 | 13.27040 | 37001 ft | 463 kts | 17° |
| 2026-04-28 17:01 | 9.16499 | 13.29005 | 37003 ft | 462 kts | 17° |
| 2026-04-28 17:02 | 9.22618 | 13.30975 | 37000 ft | 463 kts | 17° |
| 2026-04-28 17:02 | 9.28740 | 13.32946 | 37002 ft | 462 kts | 17° |
| 2026-04-28 17:03 | 9.38252 | 13.34156 | 36983 ft | 461 kts | 353° |
| 2026-04-28 17:03 | 9.44573 | 13.33447 | 36990 ft | 461 kts | 354° |
| 2026-04-28 17:04 | 9.54166 | 13.32636 | 36971 ft | 462 kts | 2° |
| 2026-04-28 17:05 | 9.60348 | 13.34147 | 36943 ft | 463 kts | 26° |
| 2026-04-28 17:05 | 9.63113 | 13.35867 | 37134 ft | 457 kts | 34° |
| 2026-04-28 17:05 | 9.65717 | 13.37671 | 36992 ft | 462 kts | 34° |
| 2026-04-28 17:06 | 9.71055 | 13.41264 | 36983 ft | 463 kts | 33° |
| 2026-04-28 17:06 | 9.79152 | 13.46622 | 37014 ft | 463 kts | 33° |
| 2026-04-28 17:07 | 9.84567 | 13.50205 | 37004 ft | 464 kts | 33° |
| 2026-04-28 17:07 | 9.89977 | 13.53790 | 36992 ft | 465 kts | 33° |
| 2026-04-28 17:08 | 9.95372 | 13.57370 | 36989 ft | 465 kts | 33° |
| 2026-04-28 17:08 | 10.00780 | 13.60958 | 37005 ft | 465 kts | 33° |
| 2026-04-28 17:09 | 10.06229 | 13.64575 | 37009 ft | 465 kts | 33° |
| 2026-04-28 17:09 | 10.11634 | 13.68083 | 36991 ft | 465 kts | 32° |
| 2026-04-28 17:10 | 10.17110 | 13.71561 | 36998 ft | 464 kts | 32° |
| 2026-04-28 17:10 | 10.22576 | 13.75038 | 37014 ft | 463 kts | 32° |
| 2026-04-28 17:11 | 10.28027 | 13.78521 | 36997 ft | 463 kts | 32° |
| 2026-04-28 17:11 | 10.33488 | 13.82017 | 36975 ft | 463 kts | 32° |
| 2026-04-28 17:12 | 10.36196 | 13.83752 | 36363 ft | 470 kts | 32° |
| 2026-04-28 17:12 | 10.38960 | 13.85522 | 35800 ft | 467 kts | 32° |
| 2026-04-28 17:12 | 10.41686 | 13.87270 | 35171 ft | 465 kts | 32° |
| 2026-04-28 17:12 | 10.44448 | 13.89040 | 34472 ft | 467 kts | 32° |
| 2026-04-28 17:13 | 10.47179 | 13.90791 | 33723 ft | 467 kts | 32° |
| 2026-04-28 17:13 | 10.49946 | 13.92564 | 33188 ft | 465 kts | 32° |
| 2026-04-28 17:13 | 10.52691 | 13.94325 | 32125 ft | 473 kts | 32° |
| 2026-04-28 17:13 | 10.55448 | 13.96094 | 31686 ft | 465 kts | 32° |
| 2026-04-28 17:14 | 10.58222 | 13.97873 | 30806 ft | 470 kts | 32° |
| 2026-04-28 17:14 | 10.60976 | 13.99640 | 30008 ft | 471 kts | 32° |
| 2026-04-28 17:14 | 10.63713 | 14.01397 | 29678 ft | 460 kts | 32° |
| 2026-04-28 17:14 | 10.66429 | 14.03140 | 29068 ft | 459 kts | 32° |
| 2026-04-28 17:15 | 10.69113 | 14.04864 | 28373 ft | 458 kts | 32° |
| 2026-04-28 17:15 | 10.71784 | 14.06579 | 28000 ft | 450 kts | 32° |
| 2026-04-28 17:15 | 10.74435 | 14.08282 | 27344 ft | 449 kts | 32° |
| 2026-04-28 17:15 | 10.77054 | 14.09965 | 26817 ft | 445 kts | 32° |
| 2026-04-28 17:16 | 10.79631 | 14.11621 | 26284 ft | 442 kts | 32° |
| 2026-04-28 17:16 | 10.82221 | 14.13286 | 25737 ft | 438 kts | 32° |
| 2026-04-28 17:16 | 10.84789 | 14.14937 | 25196 ft | 435 kts | 32° |
| 2026-04-28 17:16 | 10.87340 | 14.16578 | 24658 ft | 432 kts | 32° |
| 2026-04-28 17:17 | 10.89874 | 14.18207 | 24121 ft | 429 kts | 32° |
| 2026-04-28 17:17 | 10.92388 | 14.19824 | 23583 ft | 426 kts | 32° |
| 2026-04-28 17:17 | 10.94886 | 14.21431 | 23055 ft | 423 kts | 32° |
| 2026-04-28 17:17 | 10.97368 | 14.23029 | 22525 ft | 420 kts | 32° |
| 2026-04-28 17:18 | 10.99830 | 14.24614 | 22001 ft | 418 kts | 32° |
| 2026-04-28 17:18 | 11.02282 | 14.26193 | 21471 ft | 415 kts | 32° |
| 2026-04-28 17:18 | 11.04715 | 14.27759 | 20955 ft | 412 kts | 32° |
| 2026-04-28 17:18 | 11.07130 | 14.29315 | 20434 ft | 409 kts | 32° |
| 2026-04-28 17:19 | 11.09496 | 14.30839 | 19926 ft | 407 kts | 32° |
| 2026-04-28 17:19 | 11.11879 | 14.32374 | 19412 ft | 404 kts | 32° |
| 2026-04-28 17:19 | 11.14248 | 14.33901 | 18899 ft | 402 kts | 32° |
| 2026-04-28 17:19 | 11.16604 | 14.35420 | 18389 ft | 399 kts | 32° |
| 2026-04-28 17:20 | 11.18931 | 14.36920 | 17885 ft | 397 kts | 32° |
| 2026-04-28 17:20 | 11.20478 | 14.37918 | 17547 ft | 395 kts | 32° |
| 2026-04-28 17:20 | 11.23591 | 14.39925 | 16867 ft | 392 kts | 32° |
| 2026-04-28 17:20 | 11.25855 | 14.41386 | 16383 ft | 389 kts | 32° |
| 2026-04-28 17:21 | 11.28149 | 14.42866 | 15878 ft | 387 kts | 32° |
| 2026-04-28 17:21 | 11.30420 | 14.44331 | 15380 ft | 385 kts | 32° |
| 2026-04-28 17:21 | 11.32665 | 14.45780 | 14892 ft | 383 kts | 32° |
| 2026-04-28 17:22 | 11.37118 | 14.48655 | 13915 ft | 378 kts | 32° |
| 2026-04-28 17:22 | 11.39350 | 14.50097 | 13424 ft | 376 kts | 32° |
| 2026-04-28 17:22 | 11.41540 | 14.51512 | 12947 ft | 374 kts | 32° |
| 2026-04-28 17:23 | 11.45837 | 14.54288 | 11973 ft | 355 kts | 32° |
| 2026-04-28 17:23 | 11.47889 | 14.55614 | 11520 ft | 345 kts | 32° |
| 2026-04-28 17:23 | 11.49890 | 14.56908 | 11076 ft | 336 kts | 32° |
| 2026-04-28 17:23 | 11.51830 | 14.58162 | 10818 ft | 323 kts | 32° |
| 2026-04-28 17:24 | 11.53690 | 14.59364 | 10690 ft | 311 kts | 32° |
| 2026-04-28 17:24 | 11.55498 | 14.60534 | 10555 ft | 307 kts | 32° |
| 2026-04-28 17:24 | 11.57325 | 14.61716 | 10438 ft | 314 kts | 32° |
| 2026-04-28 17:24 | 11.59114 | 14.62873 | 10284 ft | 302 kts | 32° |
| 2026-04-28 17:25 | 11.60842 | 14.63991 | 10148 ft | 286 kts | 32° |
| 2026-04-28 17:25 | 11.64055 | 14.66071 | 9825 ft | 267 kts | 32° |
| 2026-04-28 17:25 | 11.65621 | 14.67084 | 9560 ft | 266 kts | 32° |
| 2026-04-28 17:26 | 11.67179 | 14.68093 | 9300 ft | 264 kts | 32° |
| 2026-04-28 17:26 | 11.68727 | 14.69095 | 9032 ft | 263 kts | 32° |
| 2026-04-28 17:26 | 11.70271 | 14.70095 | 8765 ft | 262 kts | 32° |
| 2026-04-28 17:26 | 11.71807 | 14.71090 | 8495 ft | 261 kts | 32° |
| 2026-04-28 17:27 | 11.73341 | 14.72083 | 8224 ft | 261 kts | 32° |
| 2026-04-28 17:27 | 11.74873 | 14.73076 | 7965 ft | 260 kts | 32° |
| 2026-04-28 17:27 | 11.76396 | 14.74062 | 7681 ft | 259 kts | 32° |
| 2026-04-28 17:27 | 11.77915 | 14.75047 | 7415 ft | 258 kts | 32° |
| 2026-04-28 17:28 | 11.79413 | 14.76018 | 7138 ft | 258 kts | 32° |
| 2026-04-28 17:28 | 11.82433 | 14.77975 | 6611 ft | 256 kts | 32° |
| 2026-04-28 17:28 | 11.83936 | 14.78950 | 6343 ft | 256 kts | 32° |
| 2026-04-28 17:29 | 11.85407 | 14.79904 | 6087 ft | 245 kts | 32° |
| 2026-04-28 17:29 | 11.86808 | 14.80813 | 5835 ft | 232 kts | 32° |
| 2026-04-28 17:29 | 11.88131 | 14.81671 | 5599 ft | 219 kts | 32° |
| 2026-04-28 17:30 | 11.90535 | 14.83231 | 5144 ft | 192 kts | 32° |
| 2026-04-28 17:30 | 11.92774 | 14.84684 | 4942 ft | 191 kts | 32° |
| 2026-04-28 17:30 | 11.93895 | 14.85411 | 4857 ft | 191 kts | 32° |
| 2026-04-28 17:31 | 11.95003 | 14.86131 | 4778 ft | 191 kts | 32° |
| 2026-04-28 17:31 | 11.97250 | 14.87589 | 4606 ft | 191 kts | 32° |
| 2026-04-28 17:32 | 11.99527 | 14.89071 | 4241 ft | 193 kts | 34° |
| 2026-04-28 17:32 | 12.00550 | 14.89920 | 4033 ft | 187 kts | 43° |
| 2026-04-28 17:32 | 12.01471 | 14.90845 | 3851 ft | 186 kts | 45° |
| 2026-04-28 17:32 | 12.02357 | 14.91774 | 3797 ft | 173 kts | 46° |
| 2026-04-28 17:33 | 12.03171 | 14.92634 | 3564 ft | 162 kts | 46° |
| 2026-04-28 17:33 | 12.03930 | 14.93436 | 3355 ft | 157 kts | 46° |
| 2026-04-28 17:33 | 12.04687 | 14.94236 | 3170 ft | 157 kts | 46° |
| 2026-04-28 17:33 | 12.05202 | 14.94779 | 3023 ft | 158 kts | 46° |
| 2026-04-28 17:34 | 12.06207 | 14.95841 | 2749 ft | 156 kts | 46° |
| 2026-04-28 17:34 | 12.06960 | 14.96637 | 2529 ft | 156 kts | 46° |
| 2026-04-28 17:34 | 12.07711 | 14.97430 | 2339 ft | 155 kts | 46° |
| 2026-04-28 17:34 | 12.08461 | 14.98222 | 2130 ft | 155 kts | 46° |
| 2026-04-28 17:35 | 12.09209 | 14.99012 | 1925 ft | 154 kts | 46° |
| 2026-04-28 17:35 | 12.09953 | 14.99798 | 1720 ft | 154 kts | 46° |
| 2026-04-28 17:35 | 12.10697 | 15.00583 | 1517 ft | 153 kts | 46° |
| 2026-04-28 17:35 | 12.11437 | 15.01365 | 1313 ft | 153 kts | 46° |
| 2026-04-28 17:36 | 12.12178 | 15.02147 | 1106 ft | 152 kts | 46° |
| 2026-04-28 17:36 | 12.12863 | 15.02875 | 983 ft | 129 kts | 46° |
| 2026-04-28 17:36 | 12.13235 | 15.03266 | 978 ft | 19 kts | 44° |
| 2026-04-28 17:36 | 12.13208 | 15.03354 | 978 ft | 18 kts | 163° |
| 2026-04-28 17:37 | 12.13183 | 15.03362 | 979 ft | 0 kts | 163° |